sensor_id;sensor_type;location;lat;lon;timestamp;noise_LAeq;noise_LA_min;noise_LA_max;noise_LA01;noise_LA95
70245;Laerm;57637;49.272;8.590;2024-03-06T00:01:04;48.53;47.30;51.78;;
70245;Laerm;57637;49.272;8.590;2024-03-06T00:03:29;48.50;47.17;51.65;;
70245;Laerm;57637;49.272;8.590;2024-03-06T00:05:54;48.47;47.15;51.50;;
70245;Laerm;57637;49.272;8.590;2024-03-06T00:08:20;48.49;47.18;51.55;;
70245;Laerm;57637;49.272;8.590;2024-03-06T00:10:45;48.48;47.24;52.00;;
70245;Laerm;57637;49.272;8.590;2024-03-06T00:13:12;48.49;47.31;52.13;;
70245;Laerm;57637;49.272;8.590;2024-03-06T00:15:37;48.48;47.09;51.54;;
70245;Laerm;57637;49.272;8.590;2024-03-06T00:18:03;48.49;46.98;51.96;;
70245;Laerm;57637;49.272;8.590;2024-03-06T00:20:29;48.46;47.02;51.84;;
70245;Laerm;57637;49.272;8.590;2024-03-06T00:22:54;48.45;47.01;51.80;;
70245;Laerm;57637;49.272;8.590;2024-03-06T00:25:19;48.44;47.28;51.90;;
70245;Laerm;57637;49.272;8.590;2024-03-06T00:27:45;48.46;47.12;51.66;;
70245;Laerm;57637;49.272;8.590;2024-03-06T00:30:10;48.47;47.17;51.68;;
70245;Laerm;57637;49.272;8.590;2024-03-06T00:32:36;48.52;47.13;51.88;;
70245;Laerm;57637;49.272;8.590;2024-03-06T00:35:01;48.49;47.25;52.80;;
70245;Laerm;57637;49.272;8.590;2024-03-06T00:37:26;48.51;47.14;52.91;;
70245;Laerm;57637;49.272;8.590;2024-03-06T00:39:52;48.51;47.17;54.02;;
70245;Laerm;57637;49.272;8.590;2024-03-06T00:42:17;48.50;47.31;51.86;;
70245;Laerm;57637;49.272;8.590;2024-03-06T00:44:42;48.48;47.12;52.34;;
70245;Laerm;57637;49.272;8.590;2024-03-06T00:47:08;48.47;47.23;51.96;;
70245;Laerm;57637;49.272;8.590;2024-03-06T00:49:33;48.48;47.13;51.55;;
70245;Laerm;57637;49.272;8.590;2024-03-06T00:51:58;48.48;47.15;51.76;;
70245;Laerm;57637;49.272;8.590;2024-03-06T00:54:24;48.47;47.10;51.79;;
70245;Laerm;57637;49.272;8.590;2024-03-06T00:56:49;48.50;47.23;51.90;;
70245;Laerm;57637;49.272;8.590;2024-03-06T00:59:14;48.52;47.24;51.90;;
70245;Laerm;57637;49.272;8.590;2024-03-06T01:01:40;48.49;46.98;51.83;;
70245;Laerm;57637;49.272;8.590;2024-03-06T01:04:05;48.52;47.14;51.71;;
70245;Laerm;57637;49.272;8.590;2024-03-06T01:06:30;48.52;47.22;51.80;;
70245;Laerm;57637;49.272;8.590;2024-03-06T01:08:56;48.52;47.05;51.58;;
70245;Laerm;57637;49.272;8.590;2024-03-06T01:11:22;48.56;47.28;51.58;;
70245;Laerm;57637;49.272;8.590;2024-03-06T01:13:47;48.54;47.30;51.81;;
70245;Laerm;57637;49.272;8.590;2024-03-06T01:16:13;48.51;47.34;51.56;;
70245;Laerm;57637;49.272;8.590;2024-03-06T01:18:38;48.47;47.06;51.98;;
70245;Laerm;57637;49.272;8.590;2024-03-06T01:21:03;48.54;47.34;51.87;;
70245;Laerm;57637;49.272;8.590;2024-03-06T01:23:29;48.54;47.31;51.80;;
70245;Laerm;57637;49.272;8.590;2024-03-06T01:25:54;48.55;47.01;52.39;;
70245;Laerm;57637;49.272;8.590;2024-03-06T01:28:19;48.55;47.32;52.00;;
70245;Laerm;57637;49.272;8.590;2024-03-06T01:30:45;48.57;47.20;51.71;;
70245;Laerm;57637;49.272;8.590;2024-03-06T01:33:10;48.54;47.02;51.87;;
70245;Laerm;57637;49.272;8.590;2024-03-06T01:35:36;48.56;47.22;52.03;;
70245;Laerm;57637;49.272;8.590;2024-03-06T01:38:01;48.54;47.27;51.78;;
70245;Laerm;57637;49.272;8.590;2024-03-06T01:40:26;48.57;47.08;52.08;;
70245;Laerm;57637;49.272;8.590;2024-03-06T01:42:52;48.55;47.39;51.75;;
70245;Laerm;57637;49.272;8.590;2024-03-06T01:45:18;48.55;47.26;51.48;;
70245;Laerm;57637;49.272;8.590;2024-03-06T01:47:43;48.55;47.05;51.51;;
70245;Laerm;57637;49.272;8.590;2024-03-06T01:50:09;48.56;47.27;51.47;;
70245;Laerm;57637;49.272;8.590;2024-03-06T01:52:36;48.52;47.02;51.42;;
70245;Laerm;57637;49.272;8.590;2024-03-06T01:55:03;48.56;47.15;51.84;;
70245;Laerm;57637;49.272;8.590;2024-03-06T01:57:30;48.52;47.21;52.86;;
70245;Laerm;57637;49.272;8.590;2024-03-06T01:59:56;48.54;47.09;51.98;;
70245;Laerm;57637;49.272;8.590;2024-03-06T02:02:22;48.50;47.19;51.57;;
70245;Laerm;57637;49.272;8.590;2024-03-06T02:04:47;48.51;47.15;51.90;;
70245;Laerm;57637;49.272;8.590;2024-03-06T02:07:12;48.52;47.03;51.56;;
70245;Laerm;57637;49.272;8.590;2024-03-06T02:09:39;48.48;47.23;51.83;;
70245;Laerm;57637;49.272;8.590;2024-03-06T02:12:06;48.46;47.22;51.48;;
70245;Laerm;57637;49.272;8.590;2024-03-06T02:14:33;48.48;47.22;51.75;;
70245;Laerm;57637;49.272;8.590;2024-03-06T02:16:59;48.49;47.02;51.49;;
70245;Laerm;57637;49.272;8.590;2024-03-06T02:19:24;48.50;47.18;51.71;;
70245;Laerm;57637;49.272;8.590;2024-03-06T02:21:51;48.46;47.10;51.41;;
70245;Laerm;57637;49.272;8.590;2024-03-06T02:24:17;48.48;47.15;51.84;;
70245;Laerm;57637;49.272;8.590;2024-03-06T02:26:42;48.51;47.19;52.00;;
70245;Laerm;57637;49.272;8.590;2024-03-06T02:29:09;48.47;47.08;51.56;;
70245;Laerm;57637;49.272;8.590;2024-03-06T02:31:34;48.49;46.99;51.46;;
70245;Laerm;57637;49.272;8.590;2024-03-06T02:34:00;48.47;47.21;51.63;;
70245;Laerm;57637;49.272;8.590;2024-03-06T02:36:29;48.48;47.06;51.53;;
70245;Laerm;57637;49.272;8.590;2024-03-06T02:38:55;48.47;47.04;51.66;;
70245;Laerm;57637;49.272;8.590;2024-03-06T02:41:20;48.48;47.10;51.62;;
70245;Laerm;57637;49.272;8.590;2024-03-06T02:43:45;48.48;47.19;51.91;;
70245;Laerm;57637;49.272;8.590;2024-03-06T02:46:10;48.47;46.98;51.51;;
70245;Laerm;57637;49.272;8.590;2024-03-06T02:48:36;48.50;47.11;51.70;;
70245;Laerm;57637;49.272;8.590;2024-03-06T02:51:01;48.48;47.21;51.60;;
70245;Laerm;57637;49.272;8.590;2024-03-06T02:53:26;48.49;47.26;51.49;;
70245;Laerm;57637;49.272;8.590;2024-03-06T02:55:53;48.50;47.23;51.54;;
70245;Laerm;57637;49.272;8.590;2024-03-06T02:58:18;48.47;47.20;51.46;;
70245;Laerm;57637;49.272;8.590;2024-03-06T03:00:43;48.47;47.25;51.60;;
70245;Laerm;57637;49.272;8.590;2024-03-06T03:03:09;48.47;47.24;51.26;;
70245;Laerm;57637;49.272;8.590;2024-03-06T03:05:37;48.45;47.07;51.42;;
70245;Laerm;57637;49.272;8.590;2024-03-06T03:08:02;48.47;47.25;51.52;;
70245;Laerm;57637;49.272;8.590;2024-03-06T03:10:29;48.45;46.99;51.41;;
70245;Laerm;57637;49.272;8.590;2024-03-06T03:12:54;48.47;47.19;51.75;;
70245;Laerm;57637;49.272;8.590;2024-03-06T03:15:20;48.46;47.39;52.48;;
70245;Laerm;57637;49.272;8.590;2024-03-06T03:17:45;48.46;47.11;50.99;;
70245;Laerm;57637;49.272;8.590;2024-03-06T03:20:11;48.48;47.03;51.68;;
70245;Laerm;57637;49.272;8.590;2024-03-06T03:22:40;48.47;47.18;51.38;;
70245;Laerm;57637;49.272;8.590;2024-03-06T03:25:12;48.46;47.16;51.49;;
70245;Laerm;57637;49.272;8.590;2024-03-06T03:27:38;48.48;47.21;50.95;;
70245;Laerm;57637;49.272;8.590;2024-03-06T03:30:07;48.49;47.27;51.57;;
70245;Laerm;57637;49.272;8.590;2024-03-06T03:32:33;48.48;47.18;51.41;;
70245;Laerm;57637;49.272;8.590;2024-03-06T03:34:59;48.47;47.21;51.63;;
70245;Laerm;57637;49.272;8.590;2024-03-06T03:37:24;48.50;47.22;51.82;;
70245;Laerm;57637;49.272;8.590;2024-03-06T03:39:49;48.48;47.01;52.28;;
70245;Laerm;57637;49.272;8.590;2024-03-06T03:42:15;48.49;47.13;51.37;;
70245;Laerm;57637;49.272;8.590;2024-03-06T03:44:40;48.49;47.05;51.58;;
70245;Laerm;57637;49.272;8.590;2024-03-06T03:47:06;48.46;47.22;51.85;;
70245;Laerm;57637;49.272;8.590;2024-03-06T03:49:31;48.47;47.14;51.53;;
70245;Laerm;57637;49.272;8.590;2024-03-06T03:51:56;48.45;47.12;50.70;;
70245;Laerm;57637;49.272;8.590;2024-03-06T03:54:21;48.44;46.70;51.13;;
70245;Laerm;57637;49.272;8.590;2024-03-06T03:56:47;48.47;47.05;51.56;;
70245;Laerm;57637;49.272;8.590;2024-03-06T03:59:13;48.47;47.06;51.85;;
70245;Laerm;57637;49.272;8.590;2024-03-06T04:01:38;48.47;47.09;51.33;;
70245;Laerm;57637;49.272;8.590;2024-03-06T04:04:03;48.47;47.24;51.33;;
70245;Laerm;57637;49.272;8.590;2024-03-06T04:06:29;48.47;47.24;51.38;;
70245;Laerm;57637;49.272;8.590;2024-03-06T04:08:54;48.45;47.02;51.20;;
70245;Laerm;57637;49.272;8.590;2024-03-06T04:11:20;48.44;47.16;51.22;;
70245;Laerm;57637;49.272;8.590;2024-03-06T04:13:45;48.44;47.15;51.06;;
70245;Laerm;57637;49.272;8.590;2024-03-06T04:16:16;48.44;47.05;51.37;;
70245;Laerm;57637;49.272;8.590;2024-03-06T04:18:41;48.47;47.18;51.60;;
70245;Laerm;57637;49.272;8.590;2024-03-06T04:21:07;48.44;47.20;51.07;;
70245;Laerm;57637;49.272;8.590;2024-03-06T04:23:33;48.45;47.19;51.53;;
70245;Laerm;57637;49.272;8.590;2024-03-06T04:26:02;48.44;47.17;51.39;;
70245;Laerm;57637;49.272;8.590;2024-03-06T04:28:28;48.45;47.25;51.14;;
70245;Laerm;57637;49.272;8.590;2024-03-06T04:30:54;48.45;47.08;51.20;;
70245;Laerm;57637;49.272;8.590;2024-03-06T04:33:19;48.45;47.08;51.26;;
70245;Laerm;57637;49.272;8.590;2024-03-06T04:35:45;48.44;46.94;51.58;;
70245;Laerm;57637;49.272;8.590;2024-03-06T04:38:10;48.44;47.07;51.47;;
70245;Laerm;57637;49.272;8.590;2024-03-06T04:40:36;48.45;46.99;51.74;;
70245;Laerm;57637;49.272;8.590;2024-03-06T04:43:01;48.44;47.07;51.46;;
70245;Laerm;57637;49.272;8.590;2024-03-06T04:45:27;48.44;47.13;51.62;;
70245;Laerm;57637;49.272;8.590;2024-03-06T04:47:53;48.46;47.01;51.47;;
70245;Laerm;57637;49.272;8.590;2024-03-06T04:50:18;48.45;47.20;50.94;;
70245;Laerm;57637;49.272;8.590;2024-03-06T04:52:43;48.43;47.11;51.69;;
70245;Laerm;57637;49.272;8.590;2024-03-06T04:55:10;48.46;47.09;51.32;;
70245;Laerm;57637;49.272;8.590;2024-03-06T04:57:37;48.44;47.18;50.97;;
70245;Laerm;57637;49.272;8.590;2024-03-06T05:00:02;48.45;47.13;50.95;;
70245;Laerm;57637;49.272;8.590;2024-03-06T05:02:31;48.45;47.12;51.47;;
70245;Laerm;57637;49.272;8.590;2024-03-06T05:04:59;48.47;47.17;52.45;;
70245;Laerm;57637;49.272;8.590;2024-03-06T05:07:26;48.46;47.27;51.09;;
70245;Laerm;57637;49.272;8.590;2024-03-06T05:09:51;48.47;47.11;51.52;;
70245;Laerm;57637;49.272;8.590;2024-03-06T05:12:16;48.46;47.08;51.25;;
70245;Laerm;57637;49.272;8.590;2024-03-06T05:14:41;48.44;47.11;51.15;;
70245;Laerm;57637;49.272;8.590;2024-03-06T05:17:07;48.46;47.26;51.25;;
70245;Laerm;57637;49.272;8.590;2024-03-06T05:19:33;48.45;46.79;51.67;;
70245;Laerm;57637;49.272;8.590;2024-03-06T05:22:00;48.45;47.13;51.27;;
70245;Laerm;57637;49.272;8.590;2024-03-06T05:24:25;48.45;47.23;51.53;;
70245;Laerm;57637;49.272;8.590;2024-03-06T05:26:50;48.47;47.26;51.75;;
70245;Laerm;57637;49.272;8.590;2024-03-06T05:29:16;48.47;47.10;51.43;;
70245;Laerm;57637;49.272;8.590;2024-03-06T05:31:41;48.48;47.19;51.55;;
70245;Laerm;57637;49.272;8.590;2024-03-06T05:34:06;48.48;46.88;51.63;;
70245;Laerm;57637;49.272;8.590;2024-03-06T05:36:32;48.47;47.24;51.52;;
70245;Laerm;57637;49.272;8.590;2024-03-06T05:38:57;48.48;47.17;52.75;;
70245;Laerm;57637;49.272;8.590;2024-03-06T05:41:22;48.49;47.13;51.49;;
70245;Laerm;57637;49.272;8.590;2024-03-06T05:43:48;48.49;47.19;52.95;;
70245;Laerm;57637;49.272;8.590;2024-03-06T05:46:13;48.50;47.08;51.58;;
70245;Laerm;57637;49.272;8.590;2024-03-06T05:48:38;48.49;47.01;51.05;;
70245;Laerm;57637;49.272;8.590;2024-03-06T05:51:05;48.49;47.16;51.50;;
70245;Laerm;57637;49.272;8.590;2024-03-06T05:53:30;48.50;47.25;51.49;;
70245;Laerm;57637;49.272;8.590;2024-03-06T05:55:55;48.50;47.26;51.89;;
70245;Laerm;57637;49.272;8.590;2024-03-06T05:58:21;48.48;47.29;51.36;;
70245;Laerm;57637;49.272;8.590;2024-03-06T06:00:46;48.47;46.72;51.08;;
70245;Laerm;57637;49.272;8.590;2024-03-06T06:03:12;48.44;47.08;51.88;;
70245;Laerm;57637;49.272;8.590;2024-03-06T06:05:38;48.46;47.23;51.68;;
70245;Laerm;57637;49.272;8.590;2024-03-06T06:08:05;48.46;47.26;51.62;;
70245;Laerm;57637;49.272;8.590;2024-03-06T06:10:30;48.43;47.15;51.26;;
70245;Laerm;57637;49.272;8.590;2024-03-06T06:12:55;48.45;47.17;51.43;;
70245;Laerm;57637;49.272;8.590;2024-03-06T06:15:21;48.43;46.85;51.85;;
70245;Laerm;57637;49.272;8.590;2024-03-06T06:17:47;48.44;47.19;51.50;;
70245;Laerm;57637;49.272;8.590;2024-03-06T06:20:13;48.45;46.86;51.70;;
70245;Laerm;57637;49.272;8.590;2024-03-06T06:22:43;48.44;47.13;51.34;;
70245;Laerm;57637;49.272;8.590;2024-03-06T06:25:08;48.45;47.29;51.47;;
70245;Laerm;57637;49.272;8.590;2024-03-06T06:27:35;48.43;47.19;51.71;;
70245;Laerm;57637;49.272;8.590;2024-03-06T06:30:00;48.43;47.29;51.23;;
70245;Laerm;57637;49.272;8.590;2024-03-06T06:32:26;48.42;46.89;51.82;;
70245;Laerm;57637;49.272;8.590;2024-03-06T06:34:51;48.41;47.00;51.81;;
70245;Laerm;57637;49.272;8.590;2024-03-06T06:37:17;48.41;47.13;51.53;;
70245;Laerm;57637;49.272;8.590;2024-03-06T06:39:43;48.42;47.22;51.42;;
70245;Laerm;57637;49.272;8.590;2024-03-06T06:42:08;48.44;47.07;50.86;;
70245;Laerm;57637;49.272;8.590;2024-03-06T06:44:35;48.42;47.14;51.96;;
70245;Laerm;57637;49.272;8.590;2024-03-06T06:47:01;48.42;47.23;51.45;;
70245;Laerm;57637;49.272;8.590;2024-03-06T06:49:26;48.41;47.07;51.47;;
70245;Laerm;57637;49.272;8.590;2024-03-06T06:51:51;48.40;47.10;51.32;;
70245;Laerm;57637;49.272;8.590;2024-03-06T06:54:17;48.42;47.03;51.70;;
70245;Laerm;57637;49.272;8.590;2024-03-06T06:56:42;48.41;47.12;51.45;;
70245;Laerm;57637;49.272;8.590;2024-03-06T06:59:07;48.41;47.03;51.39;;
70245;Laerm;57637;49.272;8.590;2024-03-06T07:01:33;48.41;46.90;52.58;;
70245;Laerm;57637;49.272;8.590;2024-03-06T07:03:58;48.38;47.06;51.73;;
70245;Laerm;57637;49.272;8.590;2024-03-06T07:06:24;48.40;47.22;51.77;;
70245;Laerm;57637;49.272;8.590;2024-03-06T07:08:50;48.40;47.05;51.77;;
70245;Laerm;57637;49.272;8.590;2024-03-06T07:11:17;48.42;47.09;52.05;;
70245;Laerm;57637;49.272;8.590;2024-03-06T07:13:42;48.41;47.06;51.37;;
70245;Laerm;57637;49.272;8.590;2024-03-06T07:16:08;48.45;47.17;52.19;;
70245;Laerm;57637;49.272;8.590;2024-03-06T07:18:34;48.43;47.26;52.04;;
70245;Laerm;57637;49.272;8.590;2024-03-06T07:21:00;48.49;47.28;51.72;;
70245;Laerm;57637;49.272;8.590;2024-03-06T07:23:25;48.48;47.31;51.60;;
70245;Laerm;57637;49.272;8.590;2024-03-06T07:25:50;48.50;47.23;52.03;;
70245;Laerm;57637;49.272;8.590;2024-03-06T07:28:16;48.53;46.88;51.83;;
70245;Laerm;57637;49.272;8.590;2024-03-06T07:30:41;48.52;47.32;51.84;;
70245;Laerm;57637;49.272;8.590;2024-03-06T07:33:06;48.53;47.20;52.02;;
70245;Laerm;57637;49.272;8.590;2024-03-06T07:35:32;48.55;47.14;52.18;;
70245;Laerm;57637;49.272;8.590;2024-03-06T07:37:58;48.55;46.80;52.42;;
70245;Laerm;57637;49.272;8.590;2024-03-06T07:40:23;48.57;47.09;52.06;;
70245;Laerm;57637;49.272;8.590;2024-03-06T07:42:48;48.58;47.36;52.45;;
70245;Laerm;57637;49.272;8.590;2024-03-06T07:45:14;48.58;47.25;52.20;;
70245;Laerm;57637;49.272;8.590;2024-03-06T07:47:39;49.49;47.40;52.68;;
70245;Laerm;57637;49.272;8.590;2024-03-06T07:50:06;48.89;47.22;52.94;;
70245;Laerm;57637;49.272;8.590;2024-03-06T07:52:32;48.66;47.17;52.64;;
70245;Laerm;57637;49.272;8.590;2024-03-06T07:54:57;48.70;47.38;52.61;;
70245;Laerm;57637;49.272;8.590;2024-03-06T07:57:23;48.69;47.34;52.82;;
70245;Laerm;57637;49.272;8.590;2024-03-06T07:59:48;48.71;47.35;52.82;;
70245;Laerm;57637;49.272;8.590;2024-03-06T08:02:16;48.66;47.32;52.70;;
70245;Laerm;57637;49.272;8.590;2024-03-06T08:04:42;48.69;47.16;54.55;;
70245;Laerm;57637;49.272;8.590;2024-03-06T08:07:07;48.74;47.19;56.40;;
70245;Laerm;57637;49.272;8.590;2024-03-06T08:09:33;49.08;47.49;58.59;;
70245;Laerm;57637;49.272;8.590;2024-03-06T08:11:58;49.01;47.42;58.10;;
70245;Laerm;57637;49.272;8.590;2024-03-06T08:14:23;48.90;47.43;56.56;;
70245;Laerm;57637;49.272;8.590;2024-03-06T08:16:49;48.76;47.50;53.56;;
70245;Laerm;57637;49.272;8.590;2024-03-06T08:19:14;48.75;47.22;53.36;;
70245;Laerm;57637;49.272;8.590;2024-03-06T08:21:40;48.77;47.36;53.39;;
70245;Laerm;57637;49.272;8.590;2024-03-06T08:24:05;48.75;47.30;53.46;;
70245;Laerm;57637;49.272;8.590;2024-03-06T08:26:31;48.75;47.45;53.36;;
70245;Laerm;57637;49.272;8.590;2024-03-06T08:28:56;48.73;47.31;54.23;;
70245;Laerm;57637;49.272;8.590;2024-03-06T08:31:22;48.68;47.15;54.18;;
70245;Laerm;57637;49.272;8.590;2024-03-06T08:33:47;48.80;47.09;56.71;;
70245;Laerm;57637;49.272;8.590;2024-03-06T08:36:13;48.64;47.37;55.48;;
70245;Laerm;57637;49.272;8.590;2024-03-06T08:38:39;48.59;47.31;52.80;;
70245;Laerm;57637;49.272;8.590;2024-03-06T08:41:05;48.59;47.26;52.97;;
70245;Laerm;57637;49.272;8.590;2024-03-06T08:43:31;48.59;47.23;53.07;;
70245;Laerm;57637;49.272;8.590;2024-03-06T08:45:56;48.61;47.29;53.02;;
70245;Laerm;57637;49.272;8.590;2024-03-06T08:48:22;48.57;47.14;53.93;;
70245;Laerm;57637;49.272;8.590;2024-03-06T08:50:47;48.62;47.40;53.01;;
70245;Laerm;57637;49.272;8.590;2024-03-06T08:53:12;48.61;47.32;52.72;;
70245;Laerm;57637;49.272;8.590;2024-03-06T08:55:39;48.63;47.40;52.74;;
70245;Laerm;57637;49.272;8.590;2024-03-06T08:58:04;48.64;47.43;52.68;;
70245;Laerm;57637;49.272;8.590;2024-03-06T09:00:29;48.65;47.09;52.83;;
70245;Laerm;57637;49.272;8.590;2024-03-06T09:02:55;48.65;47.20;52.86;;
70245;Laerm;57637;49.272;8.590;2024-03-06T09:05:20;48.64;47.19;53.35;;
70245;Laerm;57637;49.272;8.590;2024-03-06T09:07:47;48.63;47.53;52.74;;
70245;Laerm;57637;49.272;8.590;2024-03-06T09:10:12;48.61;47.15;54.83;;
70245;Laerm;57637;49.272;8.590;2024-03-06T09:12:38;48.58;47.25;53.06;;
70245;Laerm;57637;49.272;8.590;2024-03-06T09:15:04;48.61;47.39;52.94;;
70245;Laerm;57637;49.272;8.590;2024-03-06T09:17:30;48.63;47.27;54.23;;
70245;Laerm;57637;49.272;8.590;2024-03-06T09:19:56;48.57;47.16;52.48;;
70245;Laerm;57637;49.272;8.590;2024-03-06T09:22:21;48.59;47.08;52.69;;
70245;Laerm;57637;49.272;8.590;2024-03-06T09:24:47;48.60;47.20;53.29;;
70245;Laerm;57637;49.272;8.590;2024-03-06T09:27:13;48.65;47.33;52.69;;
70245;Laerm;57637;49.272;8.590;2024-03-06T09:29:39;48.75;47.40;52.69;;
70245;Laerm;57637;49.272;8.590;2024-03-06T09:32:05;48.63;47.38;52.91;;
70245;Laerm;57637;49.272;8.590;2024-03-06T09:34:30;48.63;47.38;52.78;;
70245;Laerm;57637;49.272;8.590;2024-03-06T09:36:55;48.66;47.40;52.84;;
70245;Laerm;57637;49.272;8.590;2024-03-06T09:39:20;48.66;47.24;54.30;;
70245;Laerm;57637;49.272;8.590;2024-03-06T09:41:48;48.71;47.39;52.93;;
70245;Laerm;57637;49.272;8.590;2024-03-06T09:44:14;48.72;47.39;53.13;;
70245;Laerm;57637;49.272;8.590;2024-03-06T09:46:43;48.73;47.37;53.17;;
70245;Laerm;57637;49.272;8.590;2024-03-06T09:49:14;48.72;47.31;53.20;;
70245;Laerm;57637;49.272;8.590;2024-03-06T09:51:42;48.66;47.09;53.06;;
70245;Laerm;57637;49.272;8.590;2024-03-06T09:54:11;48.68;47.34;53.54;;
70245;Laerm;57637;49.272;8.590;2024-03-06T09:56:36;48.70;47.47;53.22;;
70245;Laerm;57637;49.272;8.590;2024-03-06T09:59:02;48.61;47.24;53.44;;
70245;Laerm;57637;49.272;8.590;2024-03-06T10:01:29;48.69;47.48;53.63;;
70245;Laerm;57637;49.272;8.590;2024-03-06T10:03:56;48.70;47.36;53.53;;
70245;Laerm;57637;49.272;8.590;2024-03-06T10:06:21;48.70;46.96;53.36;;
70245;Laerm;57637;49.272;8.590;2024-03-06T10:08:47;48.73;47.31;53.50;;
70245;Laerm;57637;49.272;8.590;2024-03-06T10:11:14;48.63;47.39;53.66;;
70245;Laerm;57637;49.272;8.590;2024-03-06T10:13:39;48.67;47.40;53.82;;
70245;Laerm;57637;49.272;8.590;2024-03-06T10:16:05;48.66;47.28;53.87;;
70245;Laerm;57637;49.272;8.590;2024-03-06T10:18:35;48.68;47.28;53.78;;
70245;Laerm;57637;49.272;8.590;2024-03-06T10:21:01;48.74;47.21;53.96;;
70245;Laerm;57637;49.272;8.590;2024-03-06T10:23:27;48.67;47.30;54.04;;
70245;Laerm;57637;49.272;8.590;2024-03-06T10:25:55;48.69;47.45;53.73;;
70245;Laerm;57637;49.272;8.590;2024-03-06T10:28:22;48.77;47.44;53.90;;
70245;Laerm;57637;49.272;8.590;2024-03-06T10:30:48;48.76;47.49;54.19;;
70245;Laerm;57637;49.272;8.590;2024-03-06T10:33:16;48.77;47.38;54.14;;
70245;Laerm;57637;49.272;8.590;2024-03-06T10:35:43;48.71;47.35;53.90;;
70245;Laerm;57637;49.272;8.590;2024-03-06T10:38:10;48.67;47.27;53.79;;
70245;Laerm;57637;49.272;8.590;2024-03-06T10:40:40;48.68;47.12;53.47;;
70245;Laerm;57637;49.272;8.590;2024-03-06T10:43:06;48.68;47.42;54.97;;
70245;Laerm;57637;49.272;8.590;2024-03-06T10:45:52;48.67;47.16;53.84;;
70245;Laerm;57637;49.272;8.590;2024-03-06T10:48:27;48.71;47.16;53.83;;
70245;Laerm;57637;49.272;8.590;2024-03-06T10:50:53;48.69;47.36;53.74;;
70245;Laerm;57637;49.272;8.590;2024-03-06T10:53:20;48.70;47.45;53.80;;
70245;Laerm;57637;49.272;8.590;2024-03-06T10:55:46;48.75;47.42;54.03;;
70245;Laerm;57637;49.272;8.590;2024-03-06T10:58:12;48.78;47.41;54.21;;
70245;Laerm;57637;49.272;8.590;2024-03-06T11:00:40;49.07;47.57;53.03;;
70245;Laerm;57637;49.272;8.590;2024-03-06T11:03:07;49.08;47.49;53.09;;
70245;Laerm;57637;49.272;8.590;2024-03-06T11:05:37;49.14;47.59;54.33;;
70245;Laerm;57637;49.272;8.590;2024-03-06T11:08:15;49.13;47.69;54.75;;
70245;Laerm;57637;49.272;8.590;2024-03-06T11:10:42;49.05;47.74;56.58;;
70245;Laerm;57637;49.272;8.590;2024-03-06T11:15:46;48.98;47.73;53.35;;
70245;Laerm;57637;49.272;8.590;2024-03-06T11:24:14;49.05;47.58;53.16;;
70245;Laerm;57637;49.272;8.590;2024-03-06T11:26:57;49.11;47.76;53.77;;
70245;Laerm;57637;49.272;8.590;2024-03-06T11:29:27;49.09;47.56;53.49;;
70245;Laerm;57637;49.272;8.590;2024-03-06T11:32:06;49.13;47.62;53.70;;
70245;Laerm;57637;49.272;8.590;2024-03-06T11:34:36;49.11;47.62;53.77;;
70245;Laerm;57637;49.272;8.590;2024-03-06T11:37:06;49.14;47.83;53.54;;
70245;Laerm;57637;49.272;8.590;2024-03-06T11:39:35;49.25;47.91;53.80;;
70245;Laerm;57637;49.272;8.590;2024-03-06T11:42:02;49.26;47.75;53.29;;
70245;Laerm;57637;49.272;8.590;2024-03-06T11:44:27;49.20;47.75;54.90;;
70245;Laerm;57637;49.272;8.590;2024-03-06T11:49:21;49.18;47.74;53.86;;
70245;Laerm;57637;49.272;8.590;2024-03-06T11:51:50;49.12;47.47;53.60;;
70245;Laerm;57637;49.272;8.590;2024-03-06T11:54:16;49.12;47.48;53.59;;
70245;Laerm;57637;49.272;8.590;2024-03-06T11:56:44;49.15;47.70;53.47;;
70245;Laerm;57637;49.272;8.590;2024-03-06T11:59:12;49.10;47.60;53.41;;
70245;Laerm;57637;49.272;8.590;2024-03-06T12:01:37;49.09;47.77;53.42;;
70245;Laerm;57637;49.272;8.590;2024-03-06T12:04:03;49.14;47.85;53.54;;
70245;Laerm;57637;49.272;8.590;2024-03-06T12:06:30;49.03;47.72;55.14;;
70245;Laerm;57637;49.272;8.590;2024-03-06T12:08:55;49.13;47.60;53.42;;
70245;Laerm;57637;49.272;8.590;2024-03-06T12:11:20;49.12;47.56;55.28;;
70245;Laerm;57637;49.272;8.590;2024-03-06T12:13:48;49.11;47.86;54.04;;
70245;Laerm;57637;49.272;8.590;2024-03-06T12:16:13;49.16;47.75;53.53;;
70245;Laerm;57637;49.272;8.590;2024-03-06T12:18:39;49.20;47.78;54.92;;
70245;Laerm;57637;49.272;8.590;2024-03-06T12:21:04;49.14;47.78;53.36;;
70245;Laerm;57637;49.272;8.590;2024-03-06T12:23:29;49.08;47.88;53.34;;
70245;Laerm;57637;49.272;8.590;2024-03-06T12:26:08;49.13;47.71;53.38;;
70245;Laerm;57637;49.272;8.590;2024-03-06T12:28:36;49.15;47.66;53.42;;
70245;Laerm;57637;49.272;8.590;2024-03-06T12:31:03;49.10;47.73;55.59;;
70245;Laerm;57637;49.272;8.590;2024-03-06T12:33:28;49.09;47.69;53.22;;
70245;Laerm;57637;49.272;8.590;2024-03-06T12:38:28;49.11;47.78;53.36;;
70245;Laerm;57637;49.272;8.590;2024-03-06T12:40:54;49.17;47.71;53.49;;
70245;Laerm;57637;49.272;8.590;2024-03-06T12:43:20;49.17;47.83;53.25;;
70245;Laerm;57637;49.272;8.590;2024-03-06T12:45:45;49.18;47.91;53.48;;
70245;Laerm;57637;49.272;8.590;2024-03-06T12:48:10;49.18;47.67;53.60;;
70245;Laerm;57637;49.272;8.590;2024-03-06T12:50:37;49.11;47.65;53.30;;
70245;Laerm;57637;49.272;8.590;2024-03-06T12:53:03;49.02;47.61;53.45;;
70245;Laerm;57637;49.272;8.590;2024-03-06T12:55:31;49.04;47.53;55.28;;
70245;Laerm;57637;49.272;8.590;2024-03-06T12:58:00;49.00;47.73;56.47;;
70245;Laerm;57637;49.272;8.590;2024-03-06T13:00:27;48.98;47.73;53.32;;
70245;Laerm;57637;49.272;8.590;2024-03-06T13:02:52;48.98;47.55;56.97;;
70245;Laerm;57637;49.272;8.590;2024-03-06T13:05:18;48.91;47.55;52.83;;
70245;Laerm;57637;49.272;8.590;2024-03-06T13:07:45;48.95;47.44;53.19;;
70245;Laerm;57637;49.272;8.590;2024-03-06T13:10:11;48.86;47.53;52.73;;
70245;Laerm;57637;49.272;8.590;2024-03-06T13:12:38;48.80;47.47;53.01;;
70245;Laerm;57637;49.272;8.590;2024-03-06T13:15:04;48.77;47.35;52.78;;
70245;Laerm;57637;49.272;8.590;2024-03-06T13:17:30;48.80;47.44;53.06;;
70245;Laerm;57637;49.272;8.590;2024-03-06T13:19:55;48.84;47.26;52.83;;
70245;Laerm;57637;49.272;8.590;2024-03-06T13:22:22;48.82;47.54;52.86;;
70245;Laerm;57637;49.272;8.590;2024-03-06T13:24:48;48.81;47.50;52.93;;
70245;Laerm;57637;49.272;8.590;2024-03-06T13:27:13;48.84;47.55;52.85;;
70245;Laerm;57637;49.272;8.590;2024-03-06T13:29:39;48.82;47.46;53.02;;
70245;Laerm;57637;49.272;8.590;2024-03-06T13:32:06;48.79;47.50;52.65;;
70245;Laerm;57637;49.272;8.590;2024-03-06T13:34:31;48.78;47.31;52.97;;
70245;Laerm;57637;49.272;8.590;2024-03-06T13:36:58;48.75;47.32;52.59;;
70245;Laerm;57637;49.272;8.590;2024-03-06T13:39:23;48.79;47.50;53.03;;
70245;Laerm;57637;49.272;8.590;2024-03-06T13:41:48;48.78;47.37;53.14;;
70245;Laerm;57637;49.272;8.590;2024-03-06T13:44:14;48.85;47.29;52.99;;
70245;Laerm;57637;49.272;8.590;2024-03-06T13:46:39;48.87;47.44;52.94;;
70245;Laerm;57637;49.272;8.590;2024-03-06T13:49:05;48.87;47.71;53.26;;
70245;Laerm;57637;49.272;8.590;2024-03-06T13:51:30;48.80;47.39;53.09;;